Time;durP1;ratioP1;P1;durP2;ratioP2;P2;SDS_P1;SDS_P2;PMS_P1;PMS_P2;Temp;Humidity;BMP_temperature;BMP_pressure;BME280_temperature;BME280_humidity;BME280_pressure;Samples;Min_cycle;Max_cycle;Signal;HPM_P1;HPM_P2
2021/11/04 00:00:11;;;;;;;4.60;2.57;;;9.90;99.90;;;;;;5053635;28;20208;-76
2021/11/04 00:02:38;;;;;;;5.57;2.80;;;9.80;99.90;;;;;;5056029;28;20570;-77
2021/11/04 00:05:06;;;;;;;4.93;3.10;;;9.80;99.90;;;;;;5055060;28;20458;-77
2021/11/04 00:07:33;;;;;;;3.70;1.90;;;9.90;99.90;;;;;;5054908;28;20498;-77
2021/11/04 00:10:00;;;;;;;3.53;2.10;;;9.80;99.90;;;;;;5054465;28;20513;-77
2021/11/04 00:12:28;;;;;;;3.20;1.70;;;9.90;99.90;;;;;;5054005;28;20451;-79
2021/11/04 00:14:55;;;;;;;4.30;2.13;;;9.90;99.90;;;;;;5054637;28;20544;-79
2021/11/04 00:17:22;;;;;;;4.20;2.57;;;10.00;99.90;;;;;;5054243;28;20497;-78
2021/11/04 00:19:49;;;;;;;7.70;2.17;;;10.10;99.90;;;;;;5053849;28;20464;-79
2021/11/04 00:22:15;;;;;;;3.83;2.10;;;10.40;99.90;;;;;;5053722;28;20451;-78
2021/11/04 00:24:42;;;;;;;4.37;2.40;;;10.40;99.90;;;;;;5055131;28;20543;-79
2021/11/04 00:27:09;;;;;;;5.50;2.70;;;10.30;99.90;;;;;;5055266;28;20475;-79
2021/11/04 00:29:37;;;;;;;4.70;2.93;;;10.20;99.90;;;;;;5057739;28;20436;-79
2021/11/04 00:32:05;;;;;;;4.43;2.90;;;10.10;99.90;;;;;;5057108;28;20547;-79
2021/11/04 00:34:32;;;;;;;5.93;2.50;;;10.00;99.90;;;;;;5055639;28;20597;-78
2021/11/04 00:36:59;;;;;;;6.50;3.03;;;10.00;99.90;;;;;;5057022;28;20446;-78
2021/11/04 00:39:26;;;;;;;5.13;2.43;;;10.00;99.90;;;;;;5061107;28;20448;-78
2021/11/04 00:41:53;;;;;;;5.03;2.50;;;10.00;99.90;;;;;;5059964;28;20429;-78
2021/11/04 00:44:20;;;;;;;4.37;2.17;;;10.00;99.90;;;;;;5058042;28;20453;-78
2021/11/04 00:46:48;;;;;;;3.80;2.03;;;10.00;99.90;;;;;;5054608;28;20452;-78
2021/11/04 00:49:15;;;;;;;4.10;2.03;;;9.90;99.90;;;;;;5054010;28;20442;-78
2021/11/04 00:51:42;;;;;;;4.73;2.63;;;9.90;99.90;;;;;;5054175;28;20456;-78
2021/11/04 00:54:09;;;;;;;6.40;2.20;;;9.90;99.90;;;;;;5054067;28;20550;-78
2021/11/04 00:56:36;;;;;;;4.03;2.23;;;10.00;99.90;;;;;;5054389;28;20456;-78
2021/11/04 00:59:02;;;;;;;3.80;1.90;;;10.00;99.90;;;;;;5054218;28;20445;-78
2021/11/04 01:01:29;;;;;;;4.07;1.83;;;10.00;99.90;;;;;;5053327;28;20853;-77
2021/11/04 01:03:57;;;;;;;3.60;1.60;;;10.10;99.90;;;;;;5052711;28;20430;-77
2021/11/04 01:06:24;;;;;;;4.10;2.17;;;10.00;99.90;;;;;;5055334;28;20438;-76
2021/11/04 01:08:52;;;;;;;4.10;1.90;;;10.00;99.90;;;;;;5056365;28;20490;-77
2021/11/04 01:11:19;;;;;;;4.30;1.90;;;10.00;99.90;;;;;;5052588;28;20455;-77
2021/11/04 01:13:47;;;;;;;3.70;1.80;;;10.10;99.90;;;;;;5053128;28;20857;-78
2021/11/04 01:16:14;;;;;;;3.63;1.77;;;10.00;99.90;;;;;;5053879;28;20439;-78
2021/11/04 01:18:42;;;;;;;4.30;1.63;;;10.00;99.90;;;;;;5053607;28;20479;-78
2021/11/04 01:21:11;;;;;;;3.77;1.87;;;10.00;99.90;;;;;;5053303;28;20450;-78
2021/11/04 01:23:38;;;;;;;3.70;1.50;;;10.00;99.90;;;;;;5053213;28;20443;-77
2021/11/04 01:26:06;;;;;;;3.50;1.60;;;10.00;99.90;;;;;;5052253;28;20956;-77
2021/11/04 01:28:32;;;;;;;3.10;1.43;;;10.00;99.90;;;;;;5053121;28;20471;-77
2021/11/04 01:31:00;;;;;;;3.83;1.73;;;10.00;99.90;;;;;;5052602;28;20429;-78
2021/11/04 01:33:26;;;;;;;3.47;1.53;;;10.00;99.90;;;;;;5052688;28;20830;-78
2021/11/04 01:35:53;;;;;;;3.80;1.90;;;10.00;99.90;;;;;;5052675;28;20470;-79
2021/11/04 01:38:21;;;;;;;4.40;2.30;;;10.00;99.90;;;;;;5053792;28;20833;-79
2021/11/04 01:40:48;;;;;;;3.77;1.90;;;10.10;99.90;;;;;;5056654;28;20435;-77
2021/11/04 01:43:15;;;;;;;4.63;1.93;;;10.10;99.90;;;;;;5056190;28;20437;-78
2021/11/04 01:45:42;;;;;;;4.60;1.43;;;10.10;99.90;;;;;;5056220;28;20427;-77
2021/11/04 01:48:09;;;;;;;3.67;1.90;;;10.10;99.90;;;;;;5056030;28;20461;-77
2021/11/04 01:50:37;;;;;;;4.23;1.60;;;10.00;99.90;;;;;;5055971;28;20448;-77
2021/11/04 01:53:04;;;;;;;3.87;1.80;;;10.00;99.90;;;;;;5055865;28;20458;-77
2021/11/04 01:55:32;;;;;;;3.13;1.33;;;9.90;99.90;;;;;;5056441;28;20426;-77
2021/11/04 01:57:59;;;;;;;3.45;1.80;;;10.00;99.90;;;;;;5055555;28;20497;-77
2021/11/04 02:00:28;;;;;;;2.90;1.30;;;9.90;99.90;;;;;;5057846;28;20209;-78
2021/11/04 02:03:00;;;;;;;4.03;1.80;;;10.10;99.90;;;;;;5056784;28;20483;-78
2021/11/04 02:05:34;;;;;;;3.33;1.40;;;10.00;99.90;;;;;;5059980;28;20189;-77
2021/11/04 02:08:07;;;;;;;3.40;1.40;;;10.00;99.90;;;;;;5069872;28;20500;-77
2021/11/04 02:10:41;;;;;;;3.10;1.33;;;9.90;99.90;;;;;;5056654;28;20518;-77
2021/11/04 02:13:12;;;;;;;5.60;1.43;;;9.70;99.90;;;;;;5056121;28;20790;-78
2021/11/04 02:15:43;;;;;;;3.00;1.40;;;9.90;99.90;;;;;;5055587;28;20418;-77
2021/11/04 02:18:13;;;;;;;3.13;1.30;;;9.90;99.90;;;;;;5056052;28;20590;-77
2021/11/04 02:20:46;;;;;;;2.70;1.20;;;9.60;99.90;;;;;;5056009;28;20569;-77
2021/11/04 02:23:19;;;;;;;3.00;1.43;;;9.40;99.90;;;;;;5055496;28;20534;-76
2021/11/04 02:25:51;;;;;;;2.60;1.20;;;9.40;99.90;;;;;;5055494;28;20470;-79
2021/11/04 02:28:19;;;;;;;3.00;1.40;;;9.40;99.90;;;;;;5055566;28;20834;-77
2021/11/04 02:30:47;;;;;;;3.47;1.93;;;9.30;99.90;;;;;;5055401;28;20214;-77
2021/11/04 02:33:15;;;;;;;3.15;1.67;;;9.30;99.90;;;;;;5055644;28;20455;-78
2021/11/04 02:35:48;;;;;;;3.20;1.40;;;9.30;99.90;;;;;;5055602;28;20297;-77
2021/11/04 02:38:17;;;;;;;3.90;1.50;;;9.30;99.90;;;;;;5055958;28;20449;-79
2021/11/04 02:40:45;;;;;;;3.07;1.40;;;9.50;99.90;;;;;;5056691;28;20451;-78
2021/11/04 02:43:14;;;;;;;3.17;1.60;;;9.50;99.90;;;;;;5055120;28;20452;-77
2021/11/04 02:45:41;;;;;;;2.65;1.20;;;9.60;99.90;;;;;;5055472;28;20938;-79
2021/11/04 02:48:08;;;;;;;3.23;1.50;;;9.50;99.90;;;;;;5055584;28;20234;-78
2021/11/04 02:50:35;;;;;;;2.80;1.20;;;9.60;99.90;;;;;;5058311;28;20829;-79
2021/11/04 02:53:03;;;;;;;3.45;1.27;;;9.50;99.90;;;;;;5056028;28;20508;-79
2021/11/04 02:55:34;;;;;;;4.20;1.43;;;9.50;99.90;;;;;;5057817;28;20223;-78
2021/11/04 02:58:05;;;;;;;2.87;1.33;;;9.40;99.90;;;;;;5059499;28;20521;-77
2021/11/04 03:00:35;;;;;;;2.77;1.20;;;9.40;99.90;;;;;;5059065;28;20410;-78
2021/11/04 03:03:02;;;;;;;3.23;1.60;;;9.30;99.90;;;;;;5056925;28;20565;-78
2021/11/04 03:05:29;;;;;;;3.00;1.50;;;9.30;99.90;;;;;;5056404;28;20785;-78
2021/11/04 03:07:56;;;;;;;3.30;1.42;;;9.20;99.90;;;;;;5055813;28;20228;-78
2021/11/04 03:10:23;;;;;;;3.73;1.30;;;9.10;99.90;;;;;;5055931;28;20229;-78
2021/11/04 03:12:51;;;;;;;2.70;1.20;;;9.10;99.90;;;;;;5055979;28;20458;-78
2021/11/04 03:15:20;;;;;;;4.13;1.00;;;9.10;99.90;;;;;;5055789;28;20220;-77
2021/11/04 03:17:50;;;;;;;3.60;1.30;;;9.10;99.90;;;;;;5055716;28;20233;-78
2021/11/04 03:20:18;;;;;;;2.95;1.25;;;9.10;99.90;;;;;;5055924;28;20215;-78
2021/11/04 03:22:47;;;;;;;2.63;0.93;;;9.10;99.90;;;;;;5055555;28;20306;-78
2021/11/04 03:25:16;;;;;;;3.03;1.00;;;9.00;99.90;;;;;;5055164;28;20209;-78
2021/11/04 03:27:44;;;;;;;3.80;1.13;;;9.00;99.90;;;;;;5057017;28;20232;-77
2021/11/04 03:30:14;;;;;;;2.50;0.93;;;9.00;99.90;;;;;;5057006;28;20216;-78
2021/11/04 03:32:43;;;;;;;2.90;1.30;;;9.10;99.90;;;;;;5056173;28;20213;-78
2021/11/04 03:35:13;;;;;;;6.55;1.88;;;9.00;99.90;;;;;;5055260;28;20929;-77
2021/11/04 03:37:42;;;;;;;5.13;1.10;;;9.00;99.90;;;;;;5054040;28;20318;-77
2021/11/04 03:40:11;;;;;;;3.30;1.00;;;9.00;99.90;;;;;;5054166;28;20490;-77
2021/11/04 03:42:39;;;;;;;2.40;1.00;;;8.90;99.90;;;;;;5053906;28;20927;-78
2021/11/04 03:45:07;;;;;;;2.55;0.70;;;9.10;99.90;;;;;;5054619;28;20547;-77
2021/11/04 03:47:35;;;;;;;2.50;0.82;;;9.20;99.90;;;;;;5053668;28;20232;-77
2021/11/04 03:50:03;;;;;;;2.10;0.60;;;9.30;99.90;;;;;;5054271;28;20204;-78
2021/11/04 03:52:32;;;;;;;2.70;1.10;;;9.10;99.90;;;;;;5054003;28;20291;-77
2021/11/04 03:54:59;;;;;;;3.15;0.90;;;8.90;99.90;;;;;;5053762;28;20644;-77
2021/11/04 03:57:27;;;;;;;3.42;1.13;;;8.70;99.90;;;;;;5053256;28;20722;-77
2021/11/04 03:59:56;;;;;;;2.50;0.90;;;8.70;99.90;;;;;;5053637;28;20294;-77
2021/11/04 04:02:23;;;;;;;2.78;1.20;;;8.70;99.90;;;;;;5053202;28;20214;-77
2021/11/04 04:04:54;;;;;;;2.80;1.00;;;8.80;99.90;;;;;;5053215;28;20243;-77
2021/11/04 04:07:22;;;;;;;3.60;0.80;;;8.80;99.90;;;;;;5053582;28;20319;-77
2021/11/04 04:09:50;;;;;;;2.30;0.80;;;8.80;99.90;;;;;;5054019;28;20295;-78
2021/11/04 04:12:17;;;;;;;2.97;1.05;;;9.00;99.90;;;;;;5055617;28;20209;-78
2021/11/04 04:14:44;;;;;;;3.35;1.00;;;8.90;99.90;;;;;;5054652;28;20576;-78
2021/11/04 04:17:11;;;;;;;2.83;1.00;;;8.70;99.90;;;;;;5055104;28;20227;-78
2021/11/04 04:19:38;;;;;;;2.70;1.10;;;8.80;99.90;;;;;;5054688;28;20450;-78
2021/11/04 04:22:05;;;;;;;2.40;0.80;;;8.60;99.90;;;;;;5054517;28;20464;-78
2021/11/04 04:24:33;;;;;;;2.88;1.00;;;8.60;99.90;;;;;;5054766;28;20203;-78
2021/11/04 04:27:03;;;;;;;3.00;1.35;;;8.60;99.90;;;;;;5054388;28;20310;-77
2021/11/04 04:29:30;;;;;;;2.90;1.00;;;8.70;99.90;;;;;;5054611;28;20284;-78
2021/11/04 04:31:57;;;;;;;2.95;1.00;;;8.60;99.90;;;;;;5058847;28;20261;-78
2021/11/04 04:34:25;;;;;;;3.92;1.30;;;8.60;99.90;;;;;;5069034;28;20227;-78
2021/11/04 04:36:51;;;;;;;2.90;1.00;;;8.60;99.90;;;;;;5054987;28;20281;-78
2021/11/04 04:39:18;;;;;;;3.08;1.33;;;8.70;99.90;;;;;;5054820;28;20210;-78
2021/11/04 04:41:45;;;;;;;4.60;1.33;;;8.70;99.90;;;;;;5054905;28;20214;-78
2021/11/04 04:44:13;;;;;;;2.60;1.23;;;8.70;99.90;;;;;;5053776;28;20204;-78
2021/11/04 04:46:40;;;;;;;2.60;1.00;;;8.80;99.90;;;;;;5054152;28;20199;-77
2021/11/04 04:49:07;;;;;;;2.80;1.40;;;8.80;99.90;;;;;;5059592;28;20208;-78
2021/11/04 04:51:34;;;;;;;3.15;1.27;;;8.80;99.90;;;;;;5062393;28;20298;-78
2021/11/04 04:54:06;;;;;;;3.10;1.50;;;9.00;99.90;;;;;;5063626;28;20227;-77
2021/11/04 04:56:34;;;;;;;2.60;1.10;;;9.00;99.90;;;;;;5059251;28;20211;-78
2021/11/04 04:59:01;;;;;;;3.28;1.50;;;8.80;99.90;;;;;;5058571;28;20640;-78
2021/11/04 05:01:30;;;;;;;2.60;1.30;;;8.70;99.90;;;;;;5057397;28;20305;-77
2021/11/04 05:03:57;;;;;;;3.30;1.20;;;8.90;99.90;;;;;;5054382;28;20204;-78
2021/11/04 05:06:24;;;;;;;2.70;1.20;;;9.00;99.90;;;;;;5054455;28;20965;-77
2021/11/04 05:08:50;;;;;;;2.60;1.00;;;9.10;99.90;;;;;;5053965;28;20466;-78
2021/11/04 05:11:17;;;;;;;2.83;0.90;;;8.90;99.90;;;;;;5054018;28;20213;-78
2021/11/04 05:13:44;;;;;;;2.88;1.25;;;8.70;99.90;;;;;;5056795;28;20456;-77
2021/11/04 05:16:11;;;;;;;2.70;1.10;;;8.40;99.90;;;;;;5058976;28;20236;-78
2021/11/04 05:18:39;;;;;;;2.85;1.05;;;8.30;99.90;;;;;;5060491;28;20301;-78
2021/11/04 05:21:06;;;;;;;2.70;1.20;;;8.40;99.90;;;;;;5060138;28;20277;-78
2021/11/04 05:23:33;;;;;;;2.63;1.10;;;8.50;99.90;;;;;;5057496;28;20270;-78
2021/11/04 05:26:00;;;;;;;2.95;1.20;;;8.60;99.90;;;;;;5057853;28;20290;-78
2021/11/04 05:28:27;;;;;;;2.97;1.17;;;8.50;99.90;;;;;;5057682;28;20529;-78
2021/11/04 05:33:26;;;;;;;3.00;1.02;;;8.80;99.90;;;;;;5057884;28;21030;-81
2021/11/04 05:35:54;;;;;;;2.70;1.10;;;9.00;99.90;;;;;;5064798;28;20228;-81
2021/11/04 05:38:21;;;;;;;2.70;1.00;;;8.90;99.90;;;;;;5064021;28;20536;-82
2021/11/04 05:40:48;;;;;;;3.55;1.15;;;8.90;99.90;;;;;;5077684;28;20225;-81
2021/11/04 05:43:15;;;;;;;3.15;1.00;;;8.80;99.90;;;;;;5067910;28;20342;-82
2021/11/04 05:45:42;;;;;;;2.83;1.10;;;8.80;99.90;;;;;;5069445;28;20239;-82
2021/11/04 05:48:09;;;;;;;3.20;1.27;;;8.70;99.90;;;;;;5077069;28;20219;-81
2021/11/04 05:50:35;;;;;;;3.53;1.48;;;8.50;99.90;;;;;;5073629;28;20279;-81
2021/11/04 05:53:04;;;;;;;3.00;1.25;;;8.80;99.90;;;;;;5068684;28;20244;-81
2021/11/04 05:55:30;;;;;;;2.92;1.40;;;8.60;99.90;;;;;;5067245;28;20593;-81
2021/11/04 05:57:58;;;;;;;2.75;1.20;;;8.70;99.90;;;;;;5061596;28;20218;-82
2021/11/04 06:00:25;;;;;;;2.42;0.93;;;8.70;99.90;;;;;;5060769;28;20215;-81
2021/11/04 06:02:51;;;;;;;2.83;1.00;;;8.30;99.90;;;;;;5061630;28;20231;-82
2021/11/04 06:05:18;;;;;;;2.60;1.00;;;8.60;99.90;;;;;;5061339;28;20326;-81
2021/11/04 06:07:45;;;;;;;3.22;1.10;;;8.70;99.90;;;;;;5061978;28;20204;-81
2021/11/04 06:10:13;;;;;;;2.95;1.05;;;8.60;99.90;;;;;;5064351;28;20207;-79
2021/11/04 06:12:43;;;;;;;3.30;1.00;;;8.20;99.90;;;;;;5060011;28;20598;-87
2021/11/04 06:15:10;;;;;;;3.30;1.50;;;8.40;99.90;;;;;;5063709;28;20281;-79
2021/11/04 06:17:37;;;;;;;3.03;0.90;;;8.40;99.90;;;;;;5063288;28;20219;-81
2021/11/04 06:20:04;;;;;;;2.88;1.20;;;8.20;99.90;;;;;;5060411;28;20599;-81
2021/11/04 06:22:31;;;;;;;4.30;1.73;;;8.50;99.90;;;;;;5059902;28;20234;-81
2021/11/04 06:24:58;;;;;;;2.72;1.00;;;8.50;99.90;;;;;;5059333;28;20674;-82
2021/11/04 06:27:27;;;;;;;2.40;0.90;;;8.40;99.90;;;;;;5063506;28;20218;-81
2021/11/04 06:29:53;;;;;;;5.25;1.48;;;8.50;99.90;;;;;;5063139;28;20218;-82
2021/11/04 06:32:21;;;;;;;4.10;1.30;;;8.40;99.90;;;;;;5058914;28;20245;-80
2021/11/04 06:34:48;;;;;;;2.45;1.00;;;8.40;99.90;;;;;;5059683;28;20320;-80
2021/11/04 06:37:15;;;;;;;4.22;1.50;;;8.20;99.90;;;;;;5061000;28;20196;-81
2021/11/04 06:39:42;;;;;;;3.15;1.25;;;8.50;99.90;;;;;;5064094;28;20655;-80
2021/11/04 06:42:10;;;;;;;3.00;1.33;;;8.60;99.90;;;;;;5062521;28;20631;-81
2021/11/04 06:44:38;;;;;;;3.78;1.50;;;8.40;99.90;;;;;;5060555;28;20450;-86
2021/11/04 06:47:10;;;;;;;3.70;1.50;;;8.40;99.90;;;;;;5062331;28;20206;-79
2021/11/04 06:49:41;;;;;;;3.90;1.80;;;8.50;99.90;;;;;;5060826;28;20193;-81
2021/11/04 06:52:14;;;;;;;3.65;1.48;;;8.50;99.90;;;;;;5059426;28;20226;-80
2021/11/04 06:54:42;;;;;;;3.13;1.20;;;8.50;99.90;;;;;;5059661;28;20189;-80
2021/11/04 06:57:17;;;;;;;2.40;0.90;;;8.60;99.90;;;;;;5059389;28;20615;-81
2021/11/04 06:59:48;;;;;;;6.72;2.30;;;8.60;99.90;;;;;;5062776;28;20195;-82
2021/11/04 07:02:30;;;;;;;4.30;1.60;;;8.60;99.90;;;;;;5074963;28;20224;-82
2021/11/04 07:04:58;;;;;;;3.30;1.20;;;8.60;99.90;;;;;;5065084;28;20466;-83
2021/11/04 07:07:25;;;;;;;3.42;1.35;;;8.60;99.90;;;;;;5060642;28;20592;-86
2021/11/04 07:09:53;;;;;;;3.35;1.48;;;8.80;99.90;;;;;;5057244;28;20298;-86
2021/11/04 07:12:20;;;;;;;4.03;1.30;;;8.30;99.90;;;;;;5057492;28;20279;-87
2021/11/04 07:14:48;;;;;;;4.50;2.10;;;8.70;99.90;;;;;;5057372;28;20244;-83
2021/11/04 07:17:15;;;;;;;3.90;1.33;;;8.70;99.90;;;;;;5058920;28;20271;-83
2021/11/04 07:19:45;;;;;;;4.90;1.70;;;8.70;99.90;;;;;;5058340;28;20207;-84
2021/11/04 07:22:29;;;;;;;3.10;1.13;;;8.70;99.90;;;;;;5060530;28;20699;-84
2021/11/04 07:25:04;;;;;;;3.50;1.55;;;8.80;99.90;;;;;;5060959;28;20801;-84
2021/11/04 07:27:37;;;;;;;3.35;1.55;;;8.70;99.90;;;;;;5062355;28;20193;-82
2021/11/04 07:30:09;;;;;;;7.63;1.65;;;8.90;99.90;;;;;;5062536;28;20220;-82
2021/11/04 07:32:40;;;;;;;4.57;1.92;;;8.80;99.90;;;;;;5064667;28;20236;-84
2021/11/04 07:35:07;;;;;;;3.00;1.20;;;8.40;99.90;;;;;;5073683;28;20248;-84
2021/11/04 07:37:35;;;;;;;3.63;1.42;;;8.80;99.90;;;;;;5073183;28;20235;-84
2021/11/04 07:40:02;;;;;;;3.65;1.90;;;8.90;99.90;;;;;;5070484;28;20227;-83
2021/11/04 07:42:28;;;;;;;3.73;1.87;;;8.90;99.90;;;;;;5061496;28;20259;-84
2021/11/04 07:44:56;;;;;;;8.23;1.85;;;8.70;99.90;;;;;;5060557;28;20945;-85
2021/11/04 07:47:25;;;;;;;4.25;1.40;;;8.90;99.90;;;;;;5060780;28;20610;-85
2021/11/04 07:49:53;;;;;;;3.67;1.67;;;8.90;99.90;;;;;;5062435;28;20613;-83
2021/11/04 07:52:20;;;;;;;3.80;1.70;;;8.90;99.90;;;;;;5072165;28;20243;-83
2021/11/04 07:54:47;;;;;;;7.53;2.63;;;8.60;99.90;;;;;;5073270;28;20211;-83
2021/11/04 07:57:14;;;;;;;3.65;1.48;;;9.00;99.90;;;;;;5073482;28;20473;-81
2021/11/04 07:59:41;;;;;;;5.05;1.63;;;9.00;99.90;;;;;;5064934;28;20247;-83
2021/11/04 08:02:08;;;;;;;3.80;1.52;;;9.00;99.90;;;;;;5062245;28;20252;-85
2021/11/04 08:04:36;;;;;;;3.22;1.33;;;9.00;99.90;;;;;;5060649;28;20218;-84
2021/11/04 08:07:04;;;;;;;3.50;1.40;;;9.00;99.90;;;;;;5060427;28;20302;-83
2021/11/04 08:09:31;;;;;;;3.10;1.40;;;9.00;99.90;;;;;;5060211;28;20311;-84
2021/11/04 08:11:59;;;;;;;4.60;2.03;;;8.90;99.90;;;;;;5059500;28;20573;-84
2021/11/04 08:14:27;;;;;;;6.43;3.43;;;9.10;99.90;;;;;;5060130;28;20220;-84
2021/11/04 08:16:54;;;;;;;6.67;2.00;;;9.00;99.90;;;;;;5067305;28;20460;-85
2021/11/04 08:19:21;;;;;;;3.53;2.00;;;9.00;99.90;;;;;;5062869;28;20475;-84
2021/11/04 08:21:49;;;;;;;6.45;2.30;;;9.00;99.90;;;;;;5061399;28;20314;-83
2021/11/04 08:24:16;;;;;;;8.88;2.25;;;9.00;99.90;;;;;;5060862;28;20230;-83
2021/11/04 08:26:42;;;;;;;5.20;2.35;;;8.90;99.90;;;;;;5061436;28;20321;-83
2021/11/04 08:29:09;;;;;;;4.10;2.13;;;9.00;99.90;;;;;;5059690;28;20257;-83
2021/11/04 08:31:36;;;;;;;5.80;2.78;;;9.00;99.90;;;;;;5063728;28;20465;-84
2021/11/04 08:34:03;;;;;;;3.95;2.25;;;8.90;99.90;;;;;;5061107;28;20307;-84
2021/11/04 08:36:30;;;;;;;4.03;2.30;;;8.90;99.90;;;;;;5060475;28;20313;-84
2021/11/04 08:38:58;;;;;;;4.43;2.60;;;8.90;99.90;;;;;;5064047;28;20653;-83
2021/11/04 08:41:25;;;;;;;5.90;2.40;;;8.90;99.90;;;;;;5070562;28;20458;-83
2021/11/04 08:43:52;;;;;;;9.20;4.60;;;8.90;99.90;;;;;;5070393;28;20274;-84
2021/11/04 08:46:19;;;;;;;5.13;2.58;;;9.00;99.90;;;;;;5063840;28;20298;-84
2021/11/04 08:48:46;;;;;;;5.50;2.83;;;9.00;99.90;;;;;;5056439;28;20359;-84
2021/11/04 08:51:14;;;;;;;5.10;2.77;;;9.10;99.90;;;;;;5060005;28;20208;-84
2021/11/04 08:53:41;;;;;;;7.22;3.03;;;9.10;99.90;;;;;;5060496;28;20425;-84
2021/11/04 08:56:10;;;;;;;4.43;3.07;;;9.10;99.90;;;;;;5058968;28;20233;-84
2021/11/04 08:58:37;;;;;;;6.18;3.40;;;9.10;99.90;;;;;;5059710;28;20946;-84
2021/11/04 09:01:05;;;;;;;3.93;2.20;;;9.00;99.90;;;;;;5064247;28;20258;-83
2021/11/04 09:03:33;;;;;;;5.50;3.00;;;9.00;99.90;;;;;;5065172;28;20452;-84
2021/11/04 09:06:01;;;;;;;5.40;3.00;;;9.10;99.90;;;;;;5061837;28;20242;-84
2021/11/04 09:08:28;;;;;;;5.55;3.20;;;9.20;99.90;;;;;;5060850;28;20236;-84
2021/11/04 09:10:55;;;;;;;5.40;3.00;;;9.30;99.90;;;;;;5061666;28;20597;-84
2021/11/04 09:13:23;;;;;;;6.73;4.50;;;9.20;99.90;;;;;;5057634;28;20451;-84
2021/11/04 09:15:50;;;;;;;4.10;2.30;;;9.20;99.90;;;;;;5060836;28;20482;-84
2021/11/04 09:18:18;;;;;;;6.63;2.55;;;9.20;99.90;;;;;;5060754;28;20225;-83
2021/11/04 09:20:45;;;;;;;4.85;2.40;;;9.30;99.90;;;;;;5059263;28;20298;-82
2021/11/04 09:23:12;;;;;;;4.43;2.73;;;9.30;99.90;;;;;;5061123;28;20306;-83
2021/11/04 09:25:39;;;;;;;5.60;2.92;;;9.30;99.90;;;;;;5062453;28;20490;-83
2021/11/04 09:28:06;;;;;;;5.60;3.20;;;9.30;99.90;;;;;;5062595;28;20235;-83
2021/11/04 09:30:34;;;;;;;5.03;3.10;;;9.30;99.90;;;;;;5060050;28;20290;-82
2021/11/04 09:33:01;;;;;;;21.13;3.00;;;9.40;99.90;;;;;;5062615;28;20555;-82
2021/11/04 09:35:28;;;;;;;4.80;2.40;;;9.00;99.90;;;;;;5064651;28;20505;-83
2021/11/04 09:37:56;;;;;;;5.20;2.25;;;9.60;99.90;;;;;;5060430;28;20459;-82
2021/11/04 09:40:24;;;;;;;3.70;1.87;;;9.50;99.90;;;;;;5061624;28;20213;-82
2021/11/04 09:42:52;;;;;;;4.97;2.20;;;9.60;99.90;;;;;;5054957;28;20481;-82
2021/11/04 09:45:19;;;;;;;3.40;1.73;;;9.60;99.90;;;;;;5056734;28;20436;-82
2021/11/04 09:47:47;;;;;;;4.47;2.00;;;9.60;99.90;;;;;;5055518;28;20940;-82
2021/11/04 09:50:17;;;;;;;3.77;1.70;;;9.60;99.90;;;;;;5056517;28;20469;-82
2021/11/04 09:52:45;;;;;;;4.80;2.07;;;9.60;99.90;;;;;;5057480;28;20541;-83
2021/11/04 09:55:18;;;;;;;4.33;1.60;;;9.70;99.90;;;;;;5058355;28;20437;-84
2021/11/04 09:57:46;;;;;;;4.30;1.97;;;9.50;99.90;;;;;;5043319;28;20496;-84
2021/11/04 10:00:14;;;;;;;4.50;1.80;;;9.50;99.90;;;;;;5062237;28;20546;-85
2021/11/04 10:02:43;;;;;;;3.77;1.40;;;9.40;99.90;;;;;;5064495;28;20474;-84
2021/11/04 10:05:14;;;;;;;3.17;1.30;;;9.70;99.90;;;;;;5065799;28;20466;-84
2021/11/04 10:07:49;;;;;;;4.40;1.50;;;9.70;99.90;;;;;;5065713;28;20895;-84
2021/11/04 10:10:18;;;;;;;5.00;1.60;;;9.50;99.90;;;;;;5066596;28;20436;-84
2021/11/04 10:13:00;;;;;;;3.57;1.70;;;9.50;99.90;;;;;;5065814;28;20479;-84
2021/11/04 10:15:27;;;;;;;2.83;1.13;;;9.50;99.90;;;;;;5067204;28;20461;-84
2021/11/04 10:18:10;;;;;;;2.90;1.00;;;9.50;99.90;;;;;;5065238;28;20577;-84
2021/11/04 10:20:38;;;;;;;2.50;0.90;;;9.50;99.90;;;;;;5067335;28;20443;-84
2021/11/04 10:23:08;;;;;;;3.30;1.33;;;9.50;99.90;;;;;;5068707;28;20459;-84
2021/11/04 10:25:35;;;;;;;4.35;1.63;;;9.50;99.90;;;;;;5073359;28;20239;-84
2021/11/04 10:28:21;;;;;;;2.87;0.93;;;9.50;99.90;;;;;;5066650;28;20212;-84
2021/11/04 10:30:48;;;;;;;3.93;1.00;;;9.70;99.90;;;;;;5072333;28;20502;-85
2021/11/04 10:33:20;;;;;;;4.50;1.25;;;9.80;99.90;;;;;;5064537;28;20500;-83
2021/11/04 10:36:03;;;;;;;3.10;1.23;;;9.80;99.90;;;;;;5063089;28;20297;-83
2021/11/04 10:38:35;;;;;;;7.50;1.17;;;9.80;99.90;;;;;;5070798;28;20438;-83
2021/11/04 10:41:07;;;;;;;3.15;1.40;;;9.90;99.90;;;;;;5076473;28;20451;-82
2021/11/04 10:43:35;;;;;;;3.47;1.40;;;9.70;99.90;;;;;;5076451;28;20256;-82
2021/11/04 10:46:05;;;;;;;3.80;1.80;;;9.70;99.90;;;;;;5075254;28;20458;-83
2021/11/04 10:48:32;;;;;;;3.00;1.20;;;9.90;99.90;;;;;;5074930;28;20547;-83
2021/11/04 10:51:00;;;;;;;4.30;1.80;;;9.90;99.90;;;;;;5065292;28;20919;-83
2021/11/04 10:53:28;;;;;;;4.23;1.70;;;9.90;99.90;;;;;;5063214;28;20478;-83
2021/11/04 10:55:58;;;;;;;3.30;1.50;;;10.10;99.90;;;;;;5067951;28;20416;-84
2021/11/04 10:58:33;;;;;;;4.93;1.67;;;9.90;99.90;;;;;;5064946;28;20427;-83
2021/11/04 11:01:00;;;;;;;3.20;1.33;;;9.90;99.90;;;;;;5064103;28;20516;-83
2021/11/04 11:03:29;;;;;;;2.90;1.10;;;10.00;99.90;;;;;;5066941;28;20443;-83
2021/11/04 11:05:59;;;;;;;3.10;1.50;;;10.00;99.90;;;;;;5064411;28;20461;-83
2021/11/04 11:08:28;;;;;;;4.17;1.83;;;10.00;99.90;;;;;;5064121;28;20437;-83
2021/11/04 11:10:56;;;;;;;3.17;1.50;;;10.10;99.90;;;;;;5064386;28;20747;-83
2021/11/04 11:13:23;;;;;;;4.60;1.83;;;10.00;99.90;;;;;;5063556;28;20469;-83
2021/11/04 11:15:54;;;;;;;4.70;1.70;;;10.10;99.90;;;;;;5063990;28;20509;-83
2021/11/04 11:18:23;;;;;;;5.40;2.20;;;9.90;99.90;;;;;;5061964;28;20459;-83
2021/11/04 11:20:50;;;;;;;3.53;1.93;;;9.90;99.90;;;;;;5061929;28;20455;-83
2021/11/04 11:23:19;;;;;;;4.70;1.97;;;9.90;99.90;;;;;;5077168;28;20463;-83
2021/11/04 11:25:50;;;;;;;7.13;3.00;;;10.00;99.90;;;;;;5065600;28;20421;-82
2021/11/04 11:28:19;;;;;;;3.50;1.77;;;9.90;99.90;;;;;;5061977;28;20507;-81
2021/11/04 11:31:13;;;;;;;3.23;1.60;;;9.90;99.90;;;;;;5067172;28;20471;-81
2021/11/04 11:33:41;;;;;;;4.50;2.03;;;10.00;99.90;;;;;;5070531;28;20438;-81
2021/11/04 11:36:10;;;;;;;6.40;4.13;;;9.90;99.90;;;;;;5071990;28;20292;-80
2021/11/04 11:39:10;;;;;;;3.97;2.03;;;10.00;99.90;;;;;;5061409;28;20502;-80
2021/11/04 11:42:09;;;;;;;5.53;2.40;;;9.90;99.90;;;;;;5060258;28;20984;-83
2021/11/04 11:44:40;;;;;;;4.77;2.37;;;9.90;99.90;;;;;;5059222;28;20434;-83
2021/11/04 11:47:13;;;;;;;4.73;2.83;;;10.00;99.90;;;;;;5058826;28;20452;-80
2021/11/04 11:49:41;;;;;;;6.43;3.17;;;10.00;99.90;;;;;;5061568;28;20862;-81
2021/11/04 11:52:08;;;;;;;7.60;4.57;;;9.90;99.90;;;;;;5066501;28;20562;-80
2021/11/04 11:55:07;;;;;;;7.40;3.90;;;10.00;99.90;;;;;;5065261;28;20447;-80
2021/11/04 11:57:37;;;;;;;5.47;3.57;;;9.90;99.90;;;;;;5058574;28;20574;-81
2021/11/04 12:00:08;;;;;;;12.73;9.57;;;10.00;99.90;;;;;;5060849;28;20455;-80
2021/11/04 12:02:44;;;;;;;5.37;3.30;;;10.00;99.90;;;;;;5067082;28;20457;-81
2021/11/04 12:05:36;;;;;;;5.60;4.00;;;10.00;99.90;;;;;;5071364;28;20436;-80
2021/11/04 12:08:34;;;;;;;6.70;4.00;;;10.10;99.90;;;;;;5060214;28;20791;-83
2021/11/04 12:11:02;;;;;;;6.70;3.80;;;10.00;99.90;;;;;;5051852;28;20500;-83
2021/11/04 12:13:35;;;;;;;5.00;3.10;;;10.10;99.90;;;;;;5060569;28;20512;-82
2021/11/04 12:16:18;;;;;;;6.40;4.20;;;10.10;99.90;;;;;;5062774;28;20427;-83
2021/11/04 12:18:50;;;;;;;8.33;4.10;;;10.10;99.90;;;;;;5073543;28;20428;-83
2021/11/04 12:21:22;;;;;;;7.53;4.73;;;10.00;99.90;;;;;;5063056;28;20487;-83
2021/11/04 12:23:49;;;;;;;5.80;3.80;;;10.00;99.90;;;;;;5061040;28;20567;-83
2021/11/04 12:26:26;;;;;;;5.80;3.93;;;10.10;99.90;;;;;;5062044;28;20454;-83
2021/11/04 12:28:55;;;;;;;7.77;4.70;;;10.10;99.90;;;;;;5062589;28;20515;-83
2021/11/04 12:31:24;;;;;;;5.60;3.33;;;10.20;99.90;;;;;;5059658;28;20554;-83
2021/11/04 12:33:52;;;;;;;7.37;4.27;;;10.20;99.90;;;;;;5061332;28;20454;-82
2021/11/04 12:36:37;;;;;;;6.77;4.50;;;10.10;99.90;;;;;;5063633;28;20539;-83
2021/11/04 12:39:05;;;;;;;6.83;4.70;;;10.20;99.90;;;;;;5063105;28;20452;-83
2021/11/04 12:41:32;;;;;;;8.73;4.43;;;10.10;99.90;;;;;;5063336;28;20467;-82
2021/11/04 12:44:05;;;;;;;6.53;4.20;;;10.10;99.90;;;;;;5063137;28;20527;-83
2021/11/04 12:46:34;;;;;;;5.90;4.00;;;10.20;99.90;;;;;;5064039;28;20520;-83
2021/11/04 12:49:03;;;;;;;5.13;3.87;;;10.30;99.90;;;;;;5063519;28;20789;-83
2021/11/04 12:51:46;;;;;;;7.30;4.10;;;10.50;99.90;;;;;;5062836;28;20482;-81
2021/11/04 12:54:15;;;;;;;6.10;4.10;;;10.40;99.90;;;;;;5071443;28;20437;-83
2021/11/04 12:56:43;;;;;;;4.90;3.47;;;10.40;99.90;;;;;;5058421;28;20417;-83
2021/11/04 12:59:13;;;;;;;7.43;3.93;;;10.40;99.90;;;;;;5059284;28;20446;-83
2021/11/04 13:02:00;;;;;;;6.30;4.50;;;10.40;99.90;;;;;;5058113;28;20471;-83
2021/11/04 13:04:29;;;;;;;7.77;5.23;;;10.40;99.90;;;;;;5059714;28;20439;-83
2021/11/04 13:06:57;;;;;;;6.10;4.47;;;10.40;99.90;;;;;;5061136;28;20414;-83